createdAt,value
2022-11-05T00:01:50.143Z,52.97
2022-11-05T00:04:35.216Z,54.13
2022-11-05T00:07:31.594Z,55.88
2022-11-05T00:10:00.317Z,60.42
2022-11-05T00:12:45.229Z,53.20
2022-11-05T00:15:30.970Z,47.38
2022-11-05T00:17:57.405Z,54.17
2022-11-05T00:20:23.968Z,36.40
2022-11-05T00:23:09.457Z,47.83
2022-11-05T00:25:36.172Z,44.25
2022-11-05T00:28:03.024Z,53.45
2022-11-05T00:30:30.032Z,49.67
2022-11-05T00:33:00.355Z,34.55
2022-11-05T00:35:26.928Z,47.70
2022-11-05T00:37:53.943Z,45.03
2022-11-05T00:40:20.553Z,45.45
2022-11-05T00:43:05.801Z,50.80
2022-11-05T00:45:32.298Z,59.47
2022-11-05T00:48:17.316Z,50.53
2022-11-05T00:50:43.829Z,40.60
2022-11-05T00:53:10.784Z,43.13
2022-11-05T00:55:41.949Z,73.28
2022-11-05T00:58:13.086Z,49.83
2022-11-05T01:00:41.179Z,55.08
2022-11-05T01:03:09.305Z,47.10
2022-11-05T01:05:40.120Z,50.03
2022-11-05T01:08:07.064Z,67.28
2022-11-05T01:10:33.540Z,43.58
2022-11-05T01:12:59.994Z,39.40
2022-11-05T01:15:26.498Z,51.55
2022-11-05T01:17:53.121Z,41.63
2022-11-05T01:20:19.604Z,36.83
2022-11-05T01:22:46.134Z,41.63
2022-11-05T01:25:12.737Z,40.83
2022-11-05T01:27:39.560Z,54.85
2022-11-05T01:30:07.236Z,74.97
2022-11-05T01:32:34.378Z,29.30
2022-11-05T01:35:00.870Z,42.40
2022-11-05T01:37:27.419Z,37.30
2022-11-05T01:39:53.858Z,57.88
2022-11-05T01:42:22.508Z,38.75
2022-11-05T01:44:51.995Z,47.13
2022-11-05T01:47:29.737Z,41.80
2022-11-05T01:49:57.576Z,56.08
2022-11-05T01:52:24.281Z,59.75
2022-11-05T01:54:50.795Z,56.13
2022-11-05T01:57:17.346Z,50.90
2022-11-05T01:59:49.565Z,50.17
2022-11-05T02:02:16.670Z,65.85
2022-11-05T02:04:45.337Z,52.90
2022-11-05T02:07:12.639Z,46.05
2022-11-05T02:09:49.226Z,52.60
2022-11-05T02:12:15.752Z,60.78
2022-11-05T02:14:42.181Z,43.78
2022-11-05T02:17:12.267Z,56.45
2022-11-05T02:19:38.684Z,46.35
2022-11-05T02:22:24.128Z,89.95
2022-11-05T02:25:00.678Z,52.55
2022-11-05T02:27:56.483Z,44.90
2022-11-05T02:30:35.002Z,35.00
2022-11-05T02:33:01.419Z,49.25
2022-11-05T02:35:36.680Z,44.22
2022-11-05T02:38:07.247Z,66.35
2022-11-05T02:40:33.728Z,48.88
2022-11-05T02:43:02.905Z,50.67
2022-11-05T02:45:34.278Z,50.55
2022-11-05T02:48:10.600Z,60.58
2022-11-05T02:50:46.333Z,42.28
2022-11-05T02:53:18.728Z,67.00
2022-11-05T02:55:49.463Z,50.60
2022-11-05T02:58:15.996Z,57.22
2022-11-05T03:00:55.389Z,63.15
2022-11-05T03:03:21.889Z,38.15
2022-11-05T03:05:54.357Z,57.58
2022-11-05T03:08:32.364Z,40.53
2022-11-05T03:11:02.296Z,41.03
2022-11-05T03:13:37.985Z,40.35
2022-11-05T03:16:10.548Z,69.43
2022-11-05T03:18:42.899Z,63.73
2022-11-05T03:21:17.245Z,53.97
2022-11-05T03:23:56.240Z,70.45
2022-11-05T03:26:29.111Z,54.75
2022-11-05T03:29:06.537Z,49.85
2022-11-05T03:31:34.478Z,46.60
2022-11-05T03:34:01.140Z,55.38
2022-11-05T03:36:37.712Z,58.78
2022-11-05T03:39:06.443Z,55.75
2022-11-05T03:41:33.708Z,53.13
2022-11-05T03:44:03.263Z,46.22
2022-11-05T03:46:36.193Z,45.28
2022-11-05T03:49:04.452Z,79.30
2022-11-05T03:51:47.289Z,59.15
2022-11-05T03:54:14.356Z,58.80
2022-11-05T03:56:46.179Z,47.50
2022-11-05T03:59:12.635Z,41.50
2022-11-05T04:01:39.561Z,59.55
2022-11-05T04:04:06.847Z,52.15
2022-11-05T04:06:51.797Z,64.00
2022-11-05T04:09:37.185Z,48.42
2022-11-05T04:12:29.630Z,62.85
2022-11-05T04:14:56.351Z,52.63
2022-11-05T04:17:22.795Z,49.55
2022-11-05T04:20:07.834Z,41.65
2022-11-05T04:22:54.000Z,45.42
2022-11-05T04:25:21.187Z,43.53
2022-11-05T04:27:47.978Z,60.38
2022-11-05T04:30:18.597Z,71.85
2022-11-05T04:32:58.750Z,66.05
2022-11-05T04:35:25.740Z,50.15
2022-11-05T04:37:53.039Z,48.97
2022-11-05T04:40:19.555Z,43.63
2022-11-05T04:42:46.035Z,74.18
2022-11-05T04:45:12.516Z,46.05
2022-11-05T04:47:39.072Z,51.55
2022-11-05T04:50:05.664Z,68.20
2022-11-05T04:52:32.081Z,51.72
2022-11-05T04:54:58.509Z,58.05
2022-11-05T04:57:24.944Z,54.72
2022-11-05T04:59:52.181Z,48.85
2022-11-05T05:02:18.648Z,66.70
2022-11-05T05:04:45.219Z,78.13
2022-11-05T05:07:11.700Z,48.03
2022-11-05T05:09:38.182Z,58.20
2022-11-05T05:12:04.863Z,69.97
2022-11-05T05:14:31.353Z,52.22
2022-11-05T05:16:57.870Z,45.00
2022-11-05T05:19:25.964Z,55.72
2022-11-05T05:21:52.518Z,57.00
2022-11-05T05:24:19.762Z,56.60
2022-11-05T05:26:47.603Z,67.60
2022-11-05T05:29:14.461Z,61.03
2022-11-05T05:31:41.114Z,58.63
2022-11-05T05:34:08.369Z,64.25
2022-11-05T05:36:34.827Z,77.28
2022-11-05T05:39:01.411Z,58.97
2022-11-05T05:41:27.910Z,50.17
2022-11-05T05:43:54.451Z,58.58
2022-11-05T05:46:20.914Z,57.90
2022-11-05T05:48:51.121Z,62.97
2022-11-05T05:51:18.024Z,47.35
2022-11-05T05:53:44.869Z,50.42
2022-11-05T05:56:14.794Z,68.88
2022-11-05T05:58:41.373Z,62.75
2022-11-05T06:01:12.965Z,64.10
2022-11-05T06:03:42.235Z,72.78
2022-11-05T06:06:10.346Z,62.65
2022-11-05T06:08:36.936Z,60.55
2022-11-05T06:11:04.093Z,74.63
2022-11-05T06:13:31.128Z,66.70
2022-11-05T06:16:05.223Z,64.35
2022-11-05T06:18:32.379Z,56.92
2022-11-05T06:21:02.291Z,64.90
2022-11-05T06:23:30.099Z,42.08
2022-11-05T06:25:58.992Z,58.03
2022-11-05T06:28:25.424Z,50.42
2022-11-05T06:30:52.084Z,51.78
2022-11-05T06:33:18.660Z,77.15
2022-11-05T06:35:45.165Z,58.38
2022-11-05T06:38:11.591Z,54.05
2022-11-05T06:40:38.268Z,67.47
2022-11-05T06:43:04.789Z,84.13
2022-11-05T06:45:31.286Z,45.90
2022-11-05T06:47:58.201Z,68.78
2022-11-05T06:50:25.451Z,43.03
2022-11-05T06:53:02.250Z,53.88
2022-11-05T06:55:29.918Z,62.17
2022-11-05T06:57:56.768Z,65.10
2022-11-05T07:00:23.280Z,56.35
2022-11-05T07:02:49.759Z,51.05
2022-11-05T07:05:16.408Z,51.25
2022-11-05T07:07:43.670Z,74.25
2022-11-05T07:10:14.450Z,52.67
2022-11-05T07:12:41.162Z,78.82
2022-11-05T07:15:08.039Z,69.85
2022-11-05T07:17:34.516Z,62.00
2022-11-05T07:20:00.938Z,60.33
2022-11-05T07:22:27.387Z,71.45
2022-11-05T07:24:54.201Z,49.95
2022-11-05T07:27:20.682Z,59.40
2022-11-05T07:29:47.103Z,60.30
2022-11-05T07:32:13.536Z,72.80
2022-11-05T07:34:40.071Z,49.65
2022-11-05T07:37:06.585Z,60.78
2022-11-05T07:39:33.050Z,39.80
2022-11-05T07:41:59.592Z,60.70
2022-11-05T07:44:32.165Z,75.17
2022-11-05T07:46:58.654Z,43.08
2022-11-05T07:49:25.216Z,45.40
2022-11-05T07:51:51.725Z,47.55
2022-11-05T07:54:18.186Z,52.22
2022-11-05T07:56:46.895Z,52.90
2022-11-05T07:59:13.369Z,63.22
2022-11-05T08:01:40.087Z,48.15
2022-11-05T08:04:06.719Z,61.05
2022-11-05T08:06:33.229Z,51.30
2022-11-05T08:08:59.661Z,73.13
2022-11-05T08:11:26.169Z,51.58
2022-11-05T08:13:52.601Z,58.28
2022-11-05T08:16:19.140Z,49.50
2022-11-05T08:18:45.813Z,58.40
2022-11-05T08:21:12.438Z,54.03
2022-11-05T08:23:39.374Z,51.95
2022-11-05T08:26:05.869Z,66.82
2022-11-05T08:28:32.317Z,41.85
2022-11-05T08:30:58.916Z,76.47
2022-11-05T08:33:25.688Z,51.13
2022-11-05T08:35:52.176Z,48.45
2022-11-05T08:38:19.454Z,58.17
2022-11-05T08:40:52.811Z,52.55
2022-11-05T08:43:19.285Z,66.00
2022-11-05T08:45:45.904Z,53.83
2022-11-05T08:48:15.003Z,47.35
2022-11-05T08:50:41.924Z,47.25
2022-11-05T08:53:09.273Z,67.57
2022-11-05T08:55:36.466Z,43.42
2022-11-05T08:58:04.195Z,71.32
2022-11-05T09:00:32.123Z,67.65
2022-11-05T09:03:00.048Z,63.88
2022-11-05T09:05:27.033Z,44.28
2022-11-05T09:07:59.436Z,61.58
2022-11-05T09:10:28.420Z,48.85
2022-11-05T09:12:54.914Z,64.72
2022-11-05T09:15:21.486Z,60.47
2022-11-05T09:17:47.966Z,49.30
2022-11-05T09:20:14.591Z,56.13
2022-11-05T09:22:43.449Z,72.07
2022-11-05T09:25:10.252Z,59.65
2022-11-05T09:27:36.702Z,57.75
2022-11-05T09:30:03.849Z,61.72
2022-11-05T09:32:30.929Z,41.95
2022-11-05T09:34:57.443Z,53.08
2022-11-05T09:37:23.961Z,44.85
2022-11-05T09:39:50.473Z,65.82
2022-11-05T09:42:17.591Z,53.78
2022-11-05T09:44:47.635Z,42.22
2022-11-05T09:47:22.741Z,67.40
2022-11-05T09:49:51.839Z,63.53
2022-11-05T09:52:22.563Z,55.90
2022-11-05T09:54:50.368Z,62.83
2022-11-05T09:57:18.971Z,58.22
2022-11-05T09:59:46.965Z,59.03
2022-11-05T10:02:21.858Z,73.03
2022-11-05T10:04:51.127Z,51.53
2022-11-05T10:07:19.908Z,62.45
2022-11-05T10:09:47.925Z,71.70
2022-11-05T10:12:26.118Z,62.15
2022-11-05T10:14:58.668Z,57.75
2022-11-05T10:17:26.167Z,46.20
2022-11-05T10:20:02.819Z,52.47
2022-11-05T10:22:29.382Z,63.10
2022-11-05T10:24:55.981Z,53.08
2022-11-05T10:27:24.986Z,68.50
2022-11-05T10:29:51.533Z,64.63
2022-11-05T10:32:25.117Z,72.07
2022-11-05T10:34:51.931Z,61.63
2022-11-05T10:37:19.475Z,46.67
2022-11-05T10:39:45.941Z,74.45
2022-11-05T10:42:12.348Z,59.67
2022-11-05T10:44:55.261Z,44.10
2022-11-05T10:47:39.987Z,55.45
2022-11-05T10:50:16.472Z,55.58
2022-11-05T10:52:51.176Z,52.58
2022-11-05T10:55:17.648Z,56.92
2022-11-05T10:57:44.121Z,65.38
2022-11-05T11:00:16.692Z,61.28
2022-11-05T11:02:43.814Z,79.83
2022-11-05T11:05:11.424Z,52.53
2022-11-05T11:07:37.957Z,69.63
2022-11-05T11:10:04.640Z,64.05
2022-11-05T11:12:40.562Z,46.25
2022-11-05T11:15:13.309Z,68.13
2022-11-05T11:17:40.003Z,53.28
2022-11-05T11:20:25.200Z,79.13
2022-11-05T11:23:10.777Z,60.88
2022-11-05T11:25:40.207Z,63.30
2022-11-05T11:28:11.356Z,70.97
2022-11-05T11:30:37.941Z,62.42
2022-11-05T11:33:07.626Z,85.47
2022-11-05T11:35:36.386Z,53.63
2022-11-05T11:38:02.920Z,97.45
2022-11-05T11:40:31.519Z,71.75
2022-11-05T11:42:59.493Z,61.00
2022-11-05T11:45:33.313Z,67.20
2022-11-05T11:48:02.170Z,68.53
2022-11-05T11:50:31.489Z,71.72
2022-11-05T11:53:16.385Z,62.25
2022-11-05T11:55:55.040Z,63.50
2022-11-05T11:58:22.345Z,61.70
2022-11-05T12:01:11.753Z,62.55
2022-11-05T12:03:44.661Z,64.20
2022-11-05T12:06:49.649Z,68.18
2022-11-05T12:09:19.309Z,56.53
2022-11-05T12:11:58.819Z,67.90
2022-11-05T12:14:35.353Z,47.78
2022-11-05T12:17:01.808Z,61.85
2022-11-05T12:19:31.213Z,64.72
2022-11-05T12:22:16.107Z,70.75
2022-11-05T12:24:54.378Z,95.03
2022-11-05T12:27:32.508Z,63.28
2022-11-05T12:30:15.190Z,69.55
2022-11-05T12:32:47.990Z,63.10
2022-11-05T12:35:20.778Z,54.72
2022-11-05T12:37:53.015Z,71.47
2022-11-05T12:40:37.816Z,80.57
2022-11-05T12:43:11.942Z,87.97
2022-11-05T12:45:44.968Z,77.80
2022-11-05T12:48:17.198Z,72.07
2022-11-05T12:50:43.721Z,83.07
2022-11-05T12:53:28.946Z,75.32
2022-11-05T12:55:58.575Z,86.50
2022-11-05T12:58:51.427Z,69.68
2022-11-05T13:01:20.808Z,74.75
2022-11-05T13:03:50.647Z,89.18
2022-11-05T13:06:35.891Z,76.90
2022-11-05T13:09:05.322Z,75.47
2022-11-05T13:11:37.664Z,69.82
2022-11-05T13:14:21.593Z,100.30
2022-11-05T13:16:53.825Z,85.90
2022-11-05T13:19:22.939Z,73.90
2022-11-05T13:21:53.966Z,106.47
2022-11-05T13:24:36.218Z,85.13
2022-11-05T13:27:21.270Z,73.97
2022-11-05T13:29:50.027Z,104.38
2022-11-05T13:32:16.518Z,87.22
2022-11-05T13:34:43.352Z,80.78
2022-11-05T13:37:29.808Z,90.55
2022-11-05T13:39:58.409Z,109.15
2022-11-05T13:42:47.232Z,73.95
2022-11-05T13:45:28.714Z,94.20
2022-11-05T13:47:58.115Z,91.65
2022-11-05T13:50:43.211Z,105.28
2022-11-05T13:53:36.033Z,90.13
2022-11-05T13:56:13.344Z,112.32
2022-11-05T13:58:42.706Z,66.72
2022-11-05T14:01:09.255Z,100.05
2022-11-05T14:03:35.855Z,100.05
2022-11-05T14:06:06.940Z,107.65
2022-11-05T14:08:39.913Z,114.43
2022-11-05T14:11:17.150Z,82.90
2022-11-05T14:13:45.080Z,94.78
2022-11-05T14:16:17.276Z,87.65
2022-11-05T14:18:43.697Z,95.72
2022-11-05T14:21:25.210Z,68.68
2022-11-05T14:23:54.085Z,99.38
2022-11-05T14:26:22.144Z,90.93
2022-11-05T14:29:03.816Z,68.18
2022-11-05T14:32:08.455Z,101.30
2022-11-05T14:34:44.518Z,79.07
2022-11-05T14:37:10.947Z,86.13
2022-11-05T14:39:37.838Z,65.15
2022-11-05T14:42:19.395Z,107.85
2022-11-05T14:45:01.449Z,78.45
2022-11-05T14:47:30.498Z,76.47
2022-11-05T14:49:59.911Z,69.65
2022-11-05T14:52:26.465Z,86.85
2022-11-05T14:54:57.540Z,81.70
2022-11-05T14:57:42.103Z,82.13
2022-11-05T15:00:27.329Z,122.63
2022-11-05T15:02:57.918Z,102.55
2022-11-05T15:05:36.381Z,98.13
2022-11-05T15:08:27.524Z,90.55
2022-11-05T15:10:56.745Z,71.70
2022-11-05T15:13:46.463Z,67.68
2022-11-05T15:16:16.254Z,82.57
2022-11-05T15:18:45.558Z,94.30
2022-11-05T15:21:14.027Z,111.45
2022-11-05T15:23:44.219Z,86.97
2022-11-05T15:26:22.830Z,113.20
2022-11-05T15:28:50.163Z,74.72
2022-11-05T15:31:16.579Z,79.15
2022-11-05T15:33:44.480Z,95.20
2022-11-05T15:36:10.955Z,88.03
2022-11-05T15:38:37.560Z,75.10
2022-11-05T15:41:14.855Z,86.82
2022-11-05T15:43:47.893Z,89.20
2022-11-05T15:46:19.850Z,82.88
2022-11-05T15:48:50.906Z,90.22
2022-11-05T15:51:17.528Z,90.35
2022-11-05T15:54:02.286Z,129.50
2022-11-05T15:56:35.955Z,64.43
2022-11-05T15:59:05.651Z,92.45
2022-11-05T16:01:34.141Z,71.50
2022-11-05T16:04:07.151Z,114.18
2022-11-05T16:06:39.607Z,95.97
2022-11-05T16:09:06.316Z,77.88
2022-11-05T16:11:32.955Z,86.43
2022-11-05T16:14:16.404Z,99.28
2022-11-05T16:16:43.332Z,101.13
2022-11-05T16:19:28.523Z,113.20
2022-11-05T16:21:54.997Z,121.45
2022-11-05T16:24:28.138Z,92.03
2022-11-05T16:27:04.326Z,80.85
2022-11-05T16:29:30.830Z,102.18
2022-11-05T16:31:58.186Z,110.22
2022-11-05T16:34:26.733Z,104.78
2022-11-05T16:36:56.900Z,119.07
2022-11-05T16:39:23.813Z,88.72
2022-11-05T16:41:51.586Z,117.55
2022-11-05T16:44:18.139Z,91.07
2022-11-05T16:46:46.669Z,114.88
2022-11-05T16:49:13.208Z,84.40
2022-11-05T16:51:39.741Z,132.95
2022-11-05T16:54:06.203Z,120.43
2022-11-05T16:56:33.022Z,130.00
2022-11-05T16:58:59.602Z,114.75
2022-11-05T17:01:27.514Z,105.53
2022-11-05T17:03:54.225Z,147.07
2022-11-05T17:06:21.232Z,125.90
2022-11-05T17:08:48.578Z,127.95
2022-11-05T17:11:23.878Z,113.57
2022-11-05T17:13:51.073Z,123.90
2022-11-05T17:16:17.589Z,128.65
2022-11-05T17:18:44.211Z,154.88
2022-11-05T17:21:11.209Z,143.07
2022-11-05T17:23:37.773Z,144.27
2022-11-05T17:26:05.548Z,166.48
2022-11-05T17:28:32.906Z,105.93
2022-11-05T17:31:00.474Z,178.25
2022-11-05T17:33:27.077Z,122.97
2022-11-05T17:35:53.869Z,162.13
2022-11-05T17:38:20.873Z,131.10
2022-11-05T17:40:47.576Z,150.00
2022-11-05T17:43:15.648Z,176.63
2022-11-05T17:45:46.967Z,155.23
2022-11-05T17:48:14.246Z,158.80
2022-11-05T17:50:45.098Z,174.10
2022-11-05T17:53:12.294Z,142.38
2022-11-05T17:55:42.768Z,165.63
2022-11-05T17:58:09.693Z,259.23
2022-11-05T18:00:36.847Z,243.82
2022-11-05T18:03:03.524Z,185.20
2022-11-05T18:05:30.953Z,157.60
2022-11-05T18:07:57.899Z,167.05
2022-11-05T18:10:24.564Z,198.57
2022-11-05T18:12:51.532Z,156.18
2022-11-05T18:15:18.024Z,207.20
2022-11-05T18:17:45.785Z,170.55
2022-11-05T18:20:18.652Z,172.10
2022-11-05T18:22:46.001Z,197.35
2022-11-05T18:25:13.315Z,200.25
2022-11-05T18:27:40.541Z,160.02
2022-11-05T18:30:07.796Z,187.68
2022-11-05T18:32:34.301Z,176.93
2022-11-05T18:35:00.761Z,133.13
2022-11-05T18:37:27.368Z,141.30
2022-11-05T18:39:54.013Z,236.00
2022-11-05T18:42:20.839Z,172.93
2022-11-05T18:44:47.701Z,178.50
2022-11-05T18:47:14.172Z,184.65
2022-11-05T18:49:40.679Z,172.23
2022-11-05T18:52:07.215Z,249.05
2022-11-05T18:54:33.692Z,178.90
2022-11-05T18:57:00.292Z,169.75
2022-11-05T18:59:42.199Z,191.98
2022-11-05T19:02:11.029Z,207.93
2022-11-05T19:04:37.979Z,262.92
2022-11-05T19:07:05.962Z,201.38
2022-11-05T19:09:36.322Z,212.48
2022-11-05T19:26:40.378Z,207.18
2022-11-05T19:29:06.931Z,227.07
2022-11-05T19:31:33.831Z,279.63
2022-11-05T19:34:01.407Z,318.42
2022-11-05T19:36:27.881Z,175.65
2022-11-05T21:02:24.719Z,147.27
2022-11-05T21:04:51.448Z,128.07
2022-11-05T21:07:17.878Z,136.52
2022-11-05T21:09:44.624Z,115.68
2022-11-05T21:12:11.102Z,114.82
2022-11-05T21:14:38.560Z,126.40
2022-11-05T21:17:05.697Z,160.35
2022-11-05T21:19:33.061Z,184.43
2022-11-05T21:21:59.575Z,208.20
2022-11-05T21:24:26.159Z,134.23
2022-11-05T21:26:53.553Z,119.00
2022-11-05T21:29:20.044Z,94.10
2022-11-05T21:31:46.620Z,94.40
2022-11-05T21:34:13.264Z,185.77
2022-11-05T21:36:40.459Z,146.43
2022-11-05T21:39:13.029Z,139.52
2022-11-05T21:41:40.147Z,111.20
2022-11-05T21:44:06.606Z,101.43
2022-11-05T21:46:33.171Z,107.80
2022-11-05T21:48:59.708Z,111.95
2022-11-05T21:51:44.940Z,106.45
2022-11-05T21:54:29.894Z,98.00
2022-11-05T21:57:15.340Z,123.85
2022-11-05T21:59:48.063Z,127.63
2022-11-05T22:02:15.992Z,111.90
2022-11-05T22:04:46.606Z,88.43
2022-11-05T22:07:16.585Z,84.38
2022-11-05T22:09:43.082Z,111.70
2022-11-05T22:12:09.641Z,106.78
2022-11-05T22:14:36.592Z,91.35
2022-11-05T22:17:03.428Z,105.85
2022-11-05T22:19:30.687Z,99.78
2022-11-05T22:21:57.276Z,120.90
2022-11-05T22:24:23.784Z,108.28
2022-11-05T22:26:50.450Z,79.22
2022-11-05T22:29:17.162Z,87.80
2022-11-05T22:31:43.619Z,95.57
2022-11-05T22:34:10.128Z,103.05
2022-11-05T22:36:36.577Z,110.28
2022-11-05T22:39:03.648Z,113.65
2022-11-05T22:41:30.208Z,100.28
2022-11-05T22:43:56.996Z,133.80
2022-11-05T22:46:24.424Z,75.32
2022-11-05T22:48:51.318Z,99.75
2022-11-05T22:51:21.749Z,99.75
2022-11-05T22:53:48.599Z,94.10
2022-11-05T22:56:16.083Z,82.35
2022-11-05T22:58:43.021Z,111.65
2022-11-05T23:01:11.798Z,109.38
2022-11-05T23:03:39.304Z,94.97
2022-11-05T23:06:31.906Z,123.82
2022-11-05T23:09:17.243Z,111.68
2022-11-05T23:11:44.993Z,114.65
2022-11-05T23:14:12.653Z,101.25
2022-11-05T23:17:15.067Z,92.63
2022-11-05T23:20:00.355Z,111.63
2022-11-05T23:22:46.918Z,81.65
2022-11-05T23:25:16.959Z,90.85
2022-11-05T23:27:44.140Z,96.00
2022-11-05T23:30:15.575Z,120.55
2022-11-05T23:32:42.917Z,103.50
2022-11-05T23:35:09.748Z,110.43
2022-11-05T23:37:54.725Z,123.50
2022-11-05T23:40:23.549Z,100.80
2022-11-05T23:43:09.076Z,114.68
2022-11-05T23:45:49.538Z,94.50
2022-11-05T23:48:18.698Z,99.38
2022-11-05T23:50:49.861Z,90.35
2022-11-05T23:53:16.803Z,121.88
2022-11-05T23:55:43.555Z,114.45
2022-11-05T23:58:10.572Z,115.45
